METAR Data
IDs: Format: Raw Decoded Include TAF

Data at: 0120 UTC 20 Jul 2019

METAR for:KAMW (Ames Muni, IA, US)
Text:KAMW 200053Z AUTO 19008KT 10SM CLR 32/26 A2969 RMK AO2 SLP041 T03170256
Temperature: 31.7°C ( 89°F)
Dewpoint: 25.6°C ( 78°F) [RH = 70%]
Pressure (altimeter):29.69 inches Hg (1005.5 mb) [Sea level pressure: 1004.1 mb]
Winds:from the S (190 degrees) at 9 MPH (8 knots; 4.1 m/s)
Visibility:10 or more sm (16+ km)
Ceiling:at least 12,000 feet AGL
Clouds:sky clear below 12,000 feet AGL
QC Flag:automated observation with no human augmentation